Time;durP1;ratioP1;P1;durP2;ratioP2;P2;SDS_P1;SDS_P2;PMS_P1;PMS_P2;Temp;Humidity;BMP_temperature;BMP_pressure;BME280_temperature;BME280_humidity;BME280_pressure;Samples;Min_cycle;Max_cycle;Signal;HPM_P1;HPM_P2
2023/10/29 00:00:20;;;;;;;5.05;1.27;;;5.20;99.90;;;;;;25341580;23;20100;-51
2023/10/29 00:10:22;;;;;;;1.58;0.45;;;5.30;99.90;;;;;;25345181;23;20378;-56
2023/10/29 00:20:24;;;;;;;1.67;0.20;;;5.60;99.90;;;;;;25344720;23;20005;-55
2023/10/29 00:30:26;;;;;;;3.13;0.30;;;5.90;99.90;;;;;;25344455;23;20333;-58
2023/10/29 00:40:30;;;;;;;1.90;0.20;;;6.30;99.90;;;;;;25343827;23;20329;-55
2023/10/29 00:50:32;;;;;;;1.85;0.30;;;7.00;99.90;;;;;;25343321;23;20006;-60
2023/10/29 01:00:35;;;;;;;3.60;0.30;;;7.30;99.90;;;;;;25342727;23;20013;-60
2023/10/29 01:10:38;;;;;;;3.03;0.35;;;7.20;99.90;;;;;;25344645;23;20025;-59
2023/10/29 01:20:40;;;;;;;3.08;0.40;;;6.70;99.90;;;;;;25344873;23;20081;-54
2023/10/29 01:30:42;;;;;;;2.38;0.35;;;6.70;99.90;;;;;;25344393;23;20508;-55
2023/10/29 01:40:44;;;;;;;2.78;0.40;;;7.20;99.90;;;;;;25345104;23;20017;-55
2023/10/29 01:50:47;;;;;;;4.05;0.43;;;7.20;99.90;;;;;;25343614;23;20457;-55
2023/10/29 02:00:50;;;;;;;1.40;0.20;;;7.40;99.90;;;;;;25342812;23;20014;-54
2023/10/29 02:10:52;;;;;;;5.07;0.60;;;7.40;99.90;;;;;;25339816;23;20006;-55
2023/10/29 02:20:54;;;;;;;3.38;0.52;;;7.50;99.90;;;;;;25340058;23;20334;-60
2023/10/29 02:30:56;;;;;;;2.67;0.45;;;7.50;99.90;;;;;;25313866;23;20021;-60
2023/10/29 02:40:58;;;;;;;4.55;0.70;;;7.00;99.90;;;;;;25339268;23;20378;-59
2023/10/29 02:50:59;;;;;;;8.13;2.63;;;6.80;99.90;;;;;;25339425;23;20101;-60
2023/10/29 03:01:05;;;;;;;5.38;2.20;;;7.50;99.90;;;;;;25312807;23;20018;-60
2023/10/29 03:11:07;;;;;;;9.40;1.77;;;8.20;99.90;;;;;;25378998;23;20020;-60
2023/10/29 03:21:09;;;;;;;8.10;1.20;;;8.30;99.90;;;;;;25336823;23;20006;-60
2023/10/29 03:31:16;;;;;;;5.22;1.10;;;8.20;99.90;;;;;;25338807;23;20002;-60
2023/10/29 03:41:20;;;;;;;5.57;1.50;;;8.10;99.90;;;;;;25359274;23;20346;-59
2023/10/29 03:51:25;;;;;;;5.57;1.35;;;7.90;99.90;;;;;;25344341;23;20006;-59
2023/10/29 04:01:27;;;;;;;6.28;1.77;;;7.70;99.90;;;;;;25221730;23;20022;-58
2023/10/29 04:11:28;;;;;;;3.90;1.45;;;7.60;99.90;;;;;;25222667;23;20107;-58
2023/10/29 04:21:30;;;;;;;3.95;1.45;;;7.70;99.90;;;;;;25221028;23;20549;-58
2023/10/29 04:31:32;;;;;;;3.97;1.08;;;7.70;99.90;;;;;;25222335;23;20331;-57
2023/10/29 04:41:34;;;;;;;3.15;1.13;;;7.80;99.90;;;;;;25222929;23;20010;-57
2023/10/29 04:51:35;;;;;;;5.80;3.00;;;7.90;99.90;;;;;;25221431;23;20450;-57
2023/10/29 05:01:37;;;;;;;228.88;14.05;;;7.90;99.90;;;;;;25324339;23;20018;-57
2023/10/29 05:11:39;;;;;;;10.48;5.57;;;7.80;99.90;;;;;;25341858;23;20002;-57
2023/10/29 05:21:41;;;;;;;10.00;6.50;;;7.70;99.90;;;;;;25340990;23;20010;-57
2023/10/29 05:31:43;;;;;;;6.70;4.40;;;7.60;99.90;;;;;;25340722;23;20010;-57
2023/10/29 05:41:45;;;;;;;13.02;5.63;;;7.70;99.90;;;;;;25340676;23;20006;-58
2023/10/29 05:51:46;;;;;;;11.18;6.07;;;7.60;99.90;;;;;;25340407;23;20002;-58
2023/10/29 06:01:48;;;;;;;6.85;2.70;;;7.60;99.90;;;;;;25339893;23;20521;-58
2023/10/29 06:11:50;;;;;;;6.07;3.42;;;7.60;99.90;;;;;;25339860;23;20379;-58
2023/10/29 06:21:52;;;;;;;22.55;5.72;;;7.70;99.90;;;;;;25313445;23;20002;-58
2023/10/29 06:31:53;;;;;;;2.78;2.35;;;7.80;99.90;;;;;;25339114;23;20316;-58
2023/10/29 06:41:55;;;;;;;3.50;1.55;;;7.90;99.90;;;;;;25312487;23;20077;-58
2023/10/29 06:52:00;;;;;;;2.65;1.10;;;8.10;99.90;;;;;;25340464;23;20041;-60
2023/10/29 07:02:04;;;;;;;2.25;0.95;;;8.30;99.90;;;;;;25214910;23;20014;-60
2023/10/29 07:12:07;;;;;;;2.10;0.77;;;8.60;99.90;;;;;;25223105;23;20007;-61
2023/10/29 07:22:09;;;;;;;2.85;0.75;;;8.80;99.90;;;;;;25225240;23;20013;-60
2023/10/29 07:32:11;;;;;;;1.20;0.70;;;8.90;99.90;;;;;;25226582;23;20017;-61
2023/10/29 07:42:12;;;;;;;1.92;0.80;;;8.80;99.90;;;;;;25223936;23;20066;-61
2023/10/29 07:52:15;;;;;;;1.45;0.80;;;8.80;99.90;;;;;;25223949;23;20006;-60
2023/10/29 08:02:17;;;;;;;5.07;1.30;;;8.80;99.90;;;;;;25221868;23;20058;-59
2023/10/29 08:12:18;;;;;;;26.35;2.60;;;8.80;99.90;;;;;;25223402;23;20017;-59
2023/10/29 08:22:20;;;;;;;136.05;5.63;;;8.70;99.90;;;;;;25222844;23;20136;-60
2023/10/29 08:32:22;;;;;;;79.75;2.22;;;8.60;99.90;;;;;;25222347;23;20002;-60
2023/10/29 08:42:24;;;;;;;56.17;2.10;;;8.60;99.90;;;;;;25221849;23;20254;-60
2023/10/29 08:52:26;;;;;;;281.25;8.82;;;8.60;99.90;;;;;;25221854;23;20439;-59
2023/10/29 09:02:28;;;;;;;105.53;3.97;;;8.60;99.90;;;;;;25333478;23;20065;-60
2023/10/29 09:12:30;;;;;;;61.42;1.70;;;8.60;99.90;;;;;;25342095;23;20339;-60
2023/10/29 09:22:32;;;;;;;1.02;0.20;;;8.70;99.90;;;;;;25341224;23;20338;-59
2023/10/29 09:32:35;;;;;;;16.42;1.08;;;8.80;99.90;;;;;;25340837;23;20454;-59
2023/10/29 09:42:43;;;;;;;509.45;14.25;;;9.10;99.90;;;;;;25314518;23;20006;-60
2023/10/29 09:52:50;;;;;;;209.48;5.40;;;9.20;99.90;;;;;;25354789;23;20005;-49
2023/10/29 10:02:56;;;;;;;44.67;0.88;;;9.50;99.90;;;;;;25340335;23;20026;-51
2023/10/29 10:12:58;;;;;;;120.70;2.35;;;9.50;99.90;;;;;;25379860;23;20009;-48
2023/10/29 10:23:11;;;;;;;159.82;4.30;;;9.40;99.90;;;;;;25339277;23;20006;-63
2023/10/29 10:33:15;;;;;;;37.47;1.67;;;9.60;99.90;;;;;;25379127;23;20014;-63
2023/10/29 10:43:20;;;;;;;74.53;3.38;;;9.60;99.90;;;;;;25337615;23;20335;-62
2023/10/29 10:53:24;;;;;;;108.63;3.58;;;9.40;99.90;;;;;;25312716;23;20069;-60
2023/10/29 11:03:30;;;;;;;242.77;8.07;;;9.30;99.90;;;;;;25312305;23;20039;-61
2023/10/29 11:13:32;;;;;;;1.60;0.60;;;9.30;99.90;;;;;;25378632;23;20006;-64
2023/10/29 11:23:34;;;;;;;0.98;0.30;;;9.30;99.90;;;;;;25337243;23;20009;-63
2023/10/29 11:33:36;;;;;;;95.28;2.53;;;9.40;99.90;;;;;;25338076;23;20006;-63
2023/10/29 11:43:38;;;;;;;245.88;5.75;;;9.50;99.90;;;;;;25337409;23;20438;-62
2023/10/29 11:53:40;;;;;;;192.98;5.18;;;9.60;99.90;;;;;;25313179;23;20014;-63
2023/10/29 12:03:51;;;;;;;266.23;5.82;;;9.90;99.90;;;;;;25359328;23;20013;-60
2023/10/29 12:13:53;;;;;;;85.45;1.83;;;9.80;99.90;;;;;;25384926;23;20010;-63
2023/10/29 12:23:57;;;;;;;209.40;4.03;;;9.90;99.90;;;;;;25343974;23;20461;-63
2023/10/29 12:34:00;;;;;;;594.97;20.42;;;9.80;99.90;;;;;;25343613;23;20509;-63
2023/10/29 12:44:15;;;;;;;454.80;14.02;;;9.80;99.90;;;;;;25342318;23;20006;-62
2023/10/29 12:54:26;;;;;;;308.85;9.90;;;9.70;99.90;;;;;;25377843;23;20022;-62
2023/10/29 13:04:28;;;;;;;604.40;20.02;;;9.60;99.90;;;;;;25382147;23;20006;-62
2023/10/29 13:14:33;;;;;;;609.17;21.90;;;9.50;99.90;;;;;;25341981;23;20014;-62
2023/10/29 13:24:35;;;;;;;201.38;7.60;;;9.40;99.90;;;;;;25341456;23;20053;-62
2023/10/29 13:34:37;;;;;;;876.97;28.45;;;9.30;99.90;;;;;;25289871;23;20021;-59
2023/10/29 13:44:40;;;;;;;653.38;20.95;;;9.20;99.90;;;;;;25314515;23;20328;-59
2023/10/29 13:54:42;;;;;;;416.08;11.85;;;9.10;99.90;;;;;;25340120;23;20024;-59
2023/10/29 14:04:44;;;;;;;455.35;14.02;;;9.20;99.90;;;;;;25339713;23;20056;-64
2023/10/29 14:14:46;;;;;;;72.00;2.33;;;9.20;99.90;;;;;;25339480;23;20076;-63
2023/10/29 14:24:49;;;;;;;143.25;3.80;;;9.30;99.90;;;;;;25339022;23;20601;-59
2023/10/29 14:34:51;;;;;;;584.45;16.23;;;9.50;99.90;;;;;;25338589;23;20076;-62
2023/10/29 14:44:53;;;;;;;658.03;16.75;;;9.60;99.90;;;;;;25338496;23;20485;-59
2023/10/29 14:54:55;;;;;;;367.08;10.02;;;9.70;99.90;;;;;;25337969;23;20018;-61
2023/10/29 15:04:57;;;;;;;654.13;17.85;;;9.70;99.90;;;;;;25312524;23;20017;-62
2023/10/29 15:14:59;;;;;;;7.95;0.32;;;9.70;99.90;;;;;;25338170;23;20061;-62
2023/10/29 15:25:05;;;;;;;220.73;6.05;;;9.70;99.90;;;;;;25338143;23;20010;-62
2023/10/29 15:35:08;;;;;;;162.55;3.80;;;9.70;99.90;;;;;;25385638;23;20002;-62
2023/10/29 15:45:10;;;;;;;220.40;6.03;;;9.70;99.90;;;;;;25345199;23;20005;-64
2023/10/29 15:55:12;;;;;;;353.00;8.57;;;9.70;99.90;;;;;;25344491;23;20072;-59
2023/10/29 16:05:14;;;;;;;77.88;1.65;;;9.70;99.90;;;;;;25344375;23;20006;-63
2023/10/29 16:15:16;;;;;;;472.20;10.75;;;9.60;99.90;;;;;;25344001;23;20006;-63
2023/10/29 16:25:18;;;;;;;115.82;3.13;;;9.70;99.90;;;;;;25345253;23;20006;-62
2023/10/29 16:35:21;;;;;;;96.95;2.90;;;9.60;99.90;;;;;;25318209;23;20009;-59
2023/10/29 16:45:23;;;;;;;162.50;4.30;;;9.60;99.90;;;;;;25343552;23;20010;-63
2023/10/29 16:55:25;;;;;;;281.10;8.10;;;9.60;99.90;;;;;;25342921;23;20446;-63
2023/10/29 17:05:27;;;;;;;73.75;1.77;;;9.60;99.90;;;;;;25342688;23;20005;-59
2023/10/29 17:15:29;;;;;;;330.58;9.93;;;9.60;99.90;;;;;;25316712;23;20382;-62
2023/10/29 17:25:35;;;;;;;262.70;6.97;;;9.60;99.90;;;;;;25315833;23;20017;-62
2023/10/29 17:35:37;;;;;;;116.53;2.97;;;9.60;99.90;;;;;;25382574;23;20017;-59
2023/10/29 17:45:39;;;;;;;109.22;2.65;;;9.60;99.90;;;;;;25341764;23;20419;-63
2023/10/29 17:55:40;;;;;;;10.25;0.20;;;9.70;99.90;;;;;;25340651;23;20046;-63
2023/10/29 18:05:42;;;;;;;4.82;0.05;;;9.70;99.90;;;;;;25341049;23;20006;-63
2023/10/29 18:15:44;;;;;;;1.70;0.00;;;9.70;99.90;;;;;;25314533;23;19998;-64
2023/10/29 18:25:46;;;;;;;206.40;4.75;;;9.70;99.90;;;;;;25339790;23;20002;-63
2023/10/29 18:35:48;;;;;;;427.63;16.27;;;9.80;99.90;;;;;;25339819;23;20006;-58
2023/10/29 18:45:50;;;;;;;4.15;1.90;;;9.90;99.90;;;;;;25341094;23;20398;-62
2023/10/29 18:55:54;;;;;;;7.82;2.78;;;9.80;99.90;;;;;;25314342;23;20018;-61
2023/10/29 19:05:56;;;;;;;9.65;3.92;;;9.70;99.90;;;;;;25338395;23;20010;-61
2023/10/29 19:16:15;;;;;;;7.45;2.70;;;9.70;99.90;;;;;;25339401;23;20319;-62
2023/10/29 19:26:19;;;;;;;5.32;2.13;;;9.80;99.90;;;;;;25352220;23;20045;-61
2023/10/29 19:36:20;;;;;;;9.20;3.00;;;9.80;99.90;;;;;;25313709;23;20035;-59
2023/10/29 19:46:22;;;;;;;6.72;2.28;;;9.80;99.90;;;;;;25338718;23;20014;-58
2023/10/29 19:56:26;;;;;;;11.68;6.20;;;9.70;99.90;;;;;;25337612;23;20010;-59
2023/10/29 20:06:28;;;;;;;9.43;5.50;;;9.70;99.90;;;;;;25337600;23;20006;-54
2023/10/29 20:16:30;;;;;;;12.43;1.90;;;9.70;99.90;;;;;;25341785;23;20331;-58
2023/10/29 20:26:32;;;;;;;7.40;2.20;;;9.80;99.90;;;;;;25344830;23;20018;-58
2023/10/29 20:36:34;;;;;;;7.57;2.25;;;9.90;99.90;;;;;;25344303;23;20006;-58
2023/10/29 20:46:36;;;;;;;10.85;2.00;;;10.00;99.90;;;;;;25343938;23;20033;-58
2023/10/29 20:56:38;;;;;;;7.78;3.50;;;10.00;99.90;;;;;;25343292;23;20006;-58
2023/10/29 21:06:41;;;;;;;4.72;2.03;;;9.90;99.90;;;;;;25343189;23;20013;-58
2023/10/29 21:16:44;;;;;;;9.55;2.17;;;9.90;99.90;;;;;;25291228;23;20037;-57
2023/10/29 21:26:46;;;;;;;7.40;1.67;;;10.00;99.90;;;;;;25315380;23;20156;-58
2023/10/29 21:36:48;;;;;;;10.57;3.38;;;9.90;99.90;;;;;;25341878;23;20010;-53
2023/10/29 21:46:50;;;;;;;8.75;5.25;;;9.90;99.90;;;;;;25341645;23;20009;-58
2023/10/29 21:56:52;;;;;;;6.40;2.53;;;9.80;99.90;;;;;;25340705;23;20014;-55
2023/10/29 22:06:53;;;;;;;7.10;2.00;;;9.80;99.90;;;;;;25340923;23;20089;-54
2023/10/29 22:16:55;;;;;;;7.72;2.33;;;9.70;99.90;;;;;;25340433;23;20061;-57
2023/10/29 22:26:57;;;;;;;7.28;1.10;;;9.80;99.90;;;;;;25340105;23;20006;-54
2023/10/29 22:37:01;;;;;;;6.35;1.10;;;9.90;99.90;;;;;;25338602;23;20033;-58
2023/10/29 22:47:04;;;;;;;7.40;1.33;;;9.90;99.90;;;;;;25339201;23;20010;-53
2023/10/29 22:57:06;;;;;;;4.63;0.93;;;9.90;99.90;;;;;;25339606;23;20382;-58
2023/10/29 23:07:08;;;;;;;4.13;1.20;;;10.00;99.90;;;;;;25338894;23;20052;-58
2023/10/29 23:17:09;;;;;;;6.38;1.70;;;9.90;99.90;;;;;;25338362;23;20090;-58
2023/10/29 23:27:11;;;;;;;5.68;1.20;;;9.90;99.90;;;;;;25338523;23;20010;-54
2023/10/29 23:37:13;;;;;;;4.70;1.80;;;9.90;99.90;;;;;;25337438;23;20014;-59
2023/10/29 23:47:15;;;;;;;6.68;3.13;;;9.90;99.90;;;;;;25339450;23;20008;-60
2023/10/29 23:57:16;;;;;;;8.48;4.40;;;9.80;99.90;;;;;;25345571;23;20010;-59
